createdAt,value
2022-12-23T00:00:12.812Z,83.69
2022-12-23T00:01:12.834Z,83.50
2022-12-23T00:02:12.914Z,83.69
2022-12-23T00:03:13.057Z,83.69
2022-12-23T00:04:12.889Z,83.59
2022-12-23T00:05:12.897Z,83.59
2022-12-23T00:06:12.859Z,83.59
2022-12-23T00:07:12.876Z,83.40
2022-12-23T00:08:12.881Z,83.69
2022-12-23T00:09:12.920Z,83.50
2022-12-23T00:10:12.913Z,83.78
2022-12-23T00:11:12.919Z,83.31
2022-12-23T00:12:12.929Z,83.78
2022-12-23T00:13:12.947Z,83.31
2022-12-23T00:14:19.951Z,83.97
2022-12-23T00:15:12.961Z,83.88
2022-12-23T00:16:13.090Z,83.97
2022-12-23T00:17:22.176Z,83.88
2022-12-23T00:18:13.008Z,83.97
2022-12-23T00:19:13.029Z,83.69
2022-12-23T00:20:13.027Z,83.69
2022-12-23T00:21:13.033Z,83.88
2022-12-23T00:22:13.043Z,83.88
2022-12-23T00:23:13.057Z,83.97
2022-12-23T00:24:13.064Z,83.78
2022-12-23T00:25:13.082Z,83.88
2022-12-23T00:26:13.091Z,83.65
2022-12-23T00:27:13.099Z,84.07
2022-12-23T00:28:13.111Z,83.88
2022-12-23T00:29:13.136Z,83.69
2022-12-23T00:30:13.145Z,83.88
2022-12-23T00:31:13.199Z,83.69
2022-12-23T00:32:13.194Z,83.97
2022-12-23T00:33:13.168Z,83.59
2022-12-23T00:34:13.204Z,83.84
2022-12-23T00:35:13.192Z,83.88
2022-12-23T00:36:13.242Z,83.78
2022-12-23T00:37:13.219Z,83.65
2022-12-23T00:38:13.233Z,83.97
2022-12-23T00:39:13.244Z,83.88
2022-12-23T00:40:13.245Z,83.88
2022-12-23T00:41:13.263Z,84.07
2022-12-23T00:42:13.271Z,83.69
2022-12-23T00:43:13.283Z,83.88
2022-12-23T00:44:13.307Z,83.78
2022-12-23T00:45:13.305Z,83.78
2022-12-23T00:46:13.419Z,83.97
2022-12-23T00:47:13.327Z,83.97
2022-12-23T00:48:13.337Z,83.69
2022-12-23T00:49:13.348Z,83.40
2022-12-23T00:50:13.365Z,83.78
2022-12-23T00:51:13.370Z,83.69
2022-12-23T00:52:13.386Z,83.59
2022-12-23T00:53:13.403Z,83.69
2022-12-23T00:54:13.413Z,83.59
2022-12-23T00:55:13.415Z,83.50
2022-12-23T00:56:13.429Z,83.50
2022-12-23T00:57:13.447Z,83.59
2022-12-23T00:58:13.450Z,83.59
2022-12-23T00:59:13.469Z,83.69
2022-12-23T01:00:13.474Z,83.59
2022-12-23T01:01:13.530Z,83.78
2022-12-23T01:02:13.624Z,83.59
2022-12-23T01:03:13.613Z,83.50
2022-12-23T01:04:13.536Z,83.59
2022-12-23T01:05:13.532Z,83.59
2022-12-23T01:06:13.542Z,83.59
2022-12-23T01:07:13.554Z,83.78
2022-12-23T01:08:13.565Z,83.50
2022-12-23T01:09:13.579Z,83.50
2022-12-23T01:10:13.589Z,83.69
2022-12-23T01:11:13.632Z,83.31
2022-12-23T01:12:13.617Z,83.22
2022-12-23T01:13:13.623Z,83.78
2022-12-23T01:14:13.636Z,83.40
2022-12-23T01:15:13.643Z,83.78
2022-12-23T01:16:17.755Z,83.97
2022-12-23T01:17:13.797Z,83.97
2022-12-23T01:18:13.689Z,83.97
2022-12-23T01:19:13.697Z,84.07
2022-12-23T01:20:13.712Z,83.88
2022-12-23T01:21:13.721Z,83.97
2022-12-23T01:22:13.729Z,83.78
2022-12-23T01:23:13.740Z,83.88
2022-12-23T01:24:13.748Z,83.69
2022-12-23T01:25:13.768Z,83.88
2022-12-23T01:26:13.774Z,83.69
2022-12-23T01:27:13.798Z,83.97
2022-12-23T01:28:13.795Z,83.78
2022-12-23T01:29:13.813Z,83.78
2022-12-23T01:30:13.820Z,83.78
2022-12-23T01:31:13.885Z,83.78
2022-12-23T01:32:13.936Z,83.78
2022-12-23T01:33:13.856Z,83.78
2022-12-23T01:34:13.872Z,83.78
2022-12-23T01:35:13.877Z,83.78
2022-12-23T01:36:13.885Z,83.69
2022-12-23T01:37:13.905Z,83.88
2022-12-23T01:38:13.921Z,83.78
2022-12-23T01:39:13.940Z,83.78
2022-12-23T01:40:13.936Z,83.78
2022-12-23T01:41:13.946Z,83.88
2022-12-23T01:42:13.959Z,83.88
2022-12-23T01:43:13.971Z,83.78
2022-12-23T01:44:13.980Z,83.88
2022-12-23T01:45:13.995Z,83.78
2022-12-23T01:46:14.034Z,83.88
2022-12-23T01:47:14.017Z,83.69
2022-12-23T01:48:14.051Z,83.97
2022-12-23T01:49:14.039Z,83.88
2022-12-23T01:50:14.049Z,83.97
2022-12-23T01:51:14.060Z,83.88
2022-12-23T01:52:14.073Z,83.69
2022-12-23T01:53:14.083Z,83.78
2022-12-23T01:54:14.096Z,83.40
2022-12-23T01:55:14.112Z,83.31
2022-12-23T01:56:14.141Z,83.40
2022-12-23T01:57:14.134Z,83.59
2022-12-23T01:58:14.140Z,83.88
2022-12-23T01:59:14.156Z,83.78
2022-12-23T02:00:14.183Z,83.97
2022-12-23T02:01:14.258Z,83.59
2022-12-23T02:02:14.361Z,83.59
2022-12-23T02:03:14.246Z,83.59
2022-12-23T02:04:14.211Z,83.31
2022-12-23T02:05:14.221Z,83.59
2022-12-23T02:06:14.236Z,83.78
2022-12-23T02:07:14.244Z,83.59
2022-12-23T02:08:14.260Z,83.78
2022-12-23T02:09:14.266Z,83.59
2022-12-23T02:10:14.278Z,83.59
2022-12-23T02:11:14.290Z,83.40
2022-12-23T02:12:14.305Z,83.40
2022-12-23T02:13:14.318Z,83.31
2022-12-23T02:14:14.324Z,83.50
2022-12-23T02:15:14.338Z,83.31
2022-12-23T02:16:14.351Z,82.93
2022-12-23T02:17:14.451Z,82.84
2022-12-23T02:18:14.373Z,83.03
2022-12-23T02:19:14.394Z,82.55
2022-12-23T02:20:14.397Z,82.74
2022-12-23T02:21:14.409Z,82.84
2022-12-23T02:22:14.422Z,83.03
2022-12-23T02:23:14.427Z,82.93
2022-12-23T02:24:14.441Z,82.93
2022-12-23T02:25:14.448Z,82.84
2022-12-23T02:26:14.459Z,83.03
2022-12-23T02:27:14.475Z,82.65
2022-12-23T02:28:14.484Z,82.93
2022-12-23T02:29:14.497Z,82.74
2022-12-23T02:30:14.507Z,82.65
2022-12-23T02:31:14.583Z,82.74
2022-12-23T02:32:14.534Z,82.55
2022-12-23T02:33:14.542Z,82.74
2022-12-23T02:34:14.562Z,82.55
2022-12-23T02:35:14.563Z,82.65
2022-12-23T02:36:14.573Z,82.65
2022-12-23T02:37:14.586Z,82.65
2022-12-23T02:38:14.600Z,82.55
2022-12-23T02:39:14.607Z,82.55
2022-12-23T02:40:14.629Z,82.74
2022-12-23T02:41:14.632Z,82.74
2022-12-23T02:42:14.650Z,82.74
2022-12-23T02:43:14.669Z,82.65
2022-12-23T02:44:14.676Z,82.65
2022-12-23T02:45:14.679Z,82.74
2022-12-23T02:46:14.722Z,82.74
2022-12-23T02:47:14.706Z,82.65
2022-12-23T02:48:14.731Z,82.46
2022-12-23T02:49:14.742Z,82.74
2022-12-23T02:50:14.739Z,82.65
2022-12-23T02:51:14.752Z,82.36
2022-12-23T02:52:14.769Z,82.55
2022-12-23T02:53:14.786Z,82.55
2022-12-23T02:54:14.779Z,82.65
2022-12-23T02:55:14.791Z,82.27
2022-12-23T02:56:14.815Z,82.55
2022-12-23T02:57:14.814Z,82.46
2022-12-23T02:58:14.832Z,82.65
2022-12-23T02:59:14.836Z,82.65
2022-12-23T03:00:14.856Z,82.46
2022-12-23T03:01:14.909Z,82.36
2022-12-23T03:02:14.986Z,82.46
2022-12-23T03:03:15.004Z,82.55
2022-12-23T03:04:14.920Z,82.46
2022-12-23T03:05:14.907Z,82.55
2022-12-23T03:06:14.918Z,82.36
2022-12-23T03:07:18.427Z,82.55
2022-12-23T03:08:14.944Z,82.65
2022-12-23T03:09:14.954Z,82.55
2022-12-23T03:10:14.974Z,82.55
2022-12-23T03:11:14.976Z,82.08
2022-12-23T03:12:14.987Z,82.46
2022-12-23T03:13:14.999Z,82.17
2022-12-23T03:14:15.018Z,82.17
2022-12-23T03:15:15.025Z,82.17
2022-12-23T03:16:15.059Z,82.27
2022-12-23T03:17:15.050Z,82.36
2022-12-23T03:18:15.059Z,82.36
2022-12-23T03:19:15.069Z,82.36
2022-12-23T03:20:15.079Z,82.36
2022-12-23T03:21:15.094Z,82.36
2022-12-23T03:22:15.106Z,82.46
2022-12-23T03:23:15.113Z,82.46
2022-12-23T03:24:15.127Z,82.36
2022-12-23T03:25:15.142Z,82.46
2022-12-23T03:26:15.153Z,82.17
2022-12-23T03:27:15.159Z,82.08
2022-12-23T03:28:15.172Z,82.46
2022-12-23T03:29:15.184Z,82.46
2022-12-23T03:30:15.194Z,82.36
2022-12-23T03:31:15.252Z,82.36
2022-12-23T03:32:15.218Z,82.08
2022-12-23T03:33:15.235Z,82.08
2022-12-23T03:34:15.240Z,82.08
2022-12-23T03:35:15.255Z,81.98
2022-12-23T03:36:15.271Z,81.98
2022-12-23T03:37:15.282Z,82.08
2022-12-23T03:38:15.295Z,81.98
2022-12-23T03:39:15.301Z,82.08
2022-12-23T03:40:15.311Z,82.08
2022-12-23T03:41:15.323Z,82.17
2022-12-23T03:42:15.333Z,82.17
2022-12-23T03:43:15.347Z,82.36
2022-12-23T03:44:15.357Z,82.17
2022-12-23T03:45:41.784Z,82.17
2022-12-23T03:46:15.410Z,82.08
2022-12-23T03:47:15.400Z,81.98
2022-12-23T03:48:15.415Z,81.98
2022-12-23T03:49:15.420Z,81.98
2022-12-23T03:50:15.426Z,82.17
2022-12-23T03:51:15.438Z,81.98
2022-12-23T03:52:21.269Z,82.17
2022-12-23T03:53:15.463Z,81.70
2022-12-23T03:54:15.472Z,81.88
2022-12-23T03:55:15.491Z,81.98
2022-12-23T03:56:15.499Z,81.88
2022-12-23T03:57:15.509Z,81.98
2022-12-23T03:58:15.539Z,82.08
2022-12-23T03:59:15.541Z,81.79
2022-12-23T04:00:15.548Z,82.08
2022-12-23T04:01:17.793Z,81.88
2022-12-23T04:02:15.862Z,81.79
2022-12-23T04:03:15.589Z,81.88
2022-12-23T04:04:15.669Z,81.60
2022-12-23T04:05:15.601Z,81.70
2022-12-23T04:06:15.614Z,82.17
2022-12-23T04:07:15.628Z,81.98
2022-12-23T04:08:15.638Z,81.79
2022-12-23T04:09:21.576Z,81.88
2022-12-23T04:10:15.656Z,81.70
2022-12-23T04:11:15.676Z,81.60
2022-12-23T04:12:15.683Z,81.70
2022-12-23T04:13:15.695Z,81.70
2022-12-23T04:14:15.707Z,81.60
2022-12-23T04:15:15.727Z,81.60
2022-12-23T04:16:15.775Z,81.70
2022-12-23T04:17:15.783Z,81.79
2022-12-23T04:18:15.752Z,81.70
2022-12-23T04:19:15.764Z,81.70
2022-12-23T04:20:15.780Z,81.88
2022-12-23T04:21:15.788Z,81.70
2022-12-23T04:22:15.798Z,81.88
2022-12-23T04:23:15.825Z,81.70
2022-12-23T04:24:15.827Z,81.70
2022-12-23T04:25:15.835Z,81.88
2022-12-23T04:26:15.850Z,81.88
2022-12-23T04:27:15.898Z,81.98
2022-12-23T04:28:15.873Z,81.98
2022-12-23T04:29:15.883Z,81.32
2022-12-23T04:30:15.901Z,81.41
2022-12-23T04:31:15.963Z,81.41
2022-12-23T04:32:15.934Z,81.55
2022-12-23T04:33:15.928Z,81.41
2022-12-23T04:34:15.938Z,81.98
2022-12-23T04:35:15.953Z,81.51
2022-12-23T04:36:15.967Z,81.41
2022-12-23T04:37:15.977Z,81.45
2022-12-23T04:38:15.989Z,81.55
2022-12-23T04:39:16.001Z,81.51
2022-12-23T04:40:16.017Z,81.88
2022-12-23T04:41:16.023Z,82.03
2022-12-23T04:42:16.039Z,82.12
2022-12-23T04:43:16.057Z,81.93
2022-12-23T04:44:16.063Z,81.70
2022-12-23T04:45:16.110Z,81.79
2022-12-23T04:46:16.101Z,81.84
2022-12-23T04:47:16.103Z,82.12
2022-12-23T04:48:16.105Z,81.74
2022-12-23T04:49:16.120Z,81.88
2022-12-23T04:50:16.138Z,81.88
2022-12-23T04:51:16.149Z,81.88
2022-12-23T04:52:16.153Z,81.79
2022-12-23T04:53:16.171Z,81.79
2022-12-23T04:54:16.180Z,81.79
2022-12-23T04:55:16.210Z,81.88
2022-12-23T04:56:16.199Z,81.93
2022-12-23T04:57:16.220Z,81.65
2022-12-23T04:58:16.223Z,81.45
2022-12-23T04:59:16.235Z,81.60
2022-12-23T05:00:16.247Z,81.55
2022-12-23T05:01:16.362Z,81.74
2022-12-23T05:02:16.418Z,81.60
2022-12-23T05:03:16.372Z,81.55
2022-12-23T05:04:16.338Z,81.36
2022-12-23T05:05:16.331Z,81.32
2022-12-23T05:06:16.317Z,81.32
2022-12-23T05:07:16.340Z,81.45
2022-12-23T05:08:16.340Z,81.32
2022-12-23T05:09:16.355Z,81.36
2022-12-23T05:10:16.383Z,81.41
2022-12-23T05:11:16.376Z,81.60
2022-12-23T05:12:16.396Z,81.51
2022-12-23T05:13:16.398Z,81.36
2022-12-23T05:14:16.410Z,81.32
2022-12-23T05:15:16.426Z,81.07
2022-12-23T05:16:16.473Z,81.32
2022-12-23T05:17:16.447Z,81.55
2022-12-23T05:18:16.456Z,81.45
2022-12-23T05:19:16.464Z,81.45
2022-12-23T05:20:16.491Z,81.45
2022-12-23T05:21:16.492Z,81.41
2022-12-23T05:22:16.504Z,81.36
2022-12-23T05:23:16.516Z,81.32
2022-12-23T05:24:16.532Z,81.36
2022-12-23T05:25:16.556Z,81.55
2022-12-23T05:26:16.562Z,81.26
2022-12-23T05:27:16.564Z,81.45
2022-12-23T05:28:16.575Z,81.36
2022-12-23T05:29:16.585Z,81.17
2022-12-23T05:30:16.610Z,81.07
2022-12-23T05:31:16.669Z,81.07
2022-12-23T05:32:16.631Z,81.17
2022-12-23T05:33:16.659Z,81.17
2022-12-23T05:34:16.641Z,81.07
2022-12-23T05:35:16.653Z,81.17
2022-12-23T05:36:16.673Z,81.17
2022-12-23T05:37:16.678Z,81.07
2022-12-23T05:38:16.691Z,81.36
2022-12-23T05:39:16.705Z,81.17
2022-12-23T05:40:21.581Z,81.36
2022-12-23T05:41:16.788Z,80.98
2022-12-23T05:42:16.736Z,80.79
2022-12-23T05:43:16.751Z,81.07
2022-12-23T05:44:16.759Z,80.98
2022-12-23T05:45:16.772Z,80.88
2022-12-23T05:46:19.935Z,80.79
2022-12-23T05:47:16.827Z,80.88
2022-12-23T05:48:16.806Z,80.88
2022-12-23T05:49:16.823Z,80.69
2022-12-23T05:50:16.853Z,80.88
2022-12-23T05:51:16.842Z,81.26
2022-12-23T05:52:16.860Z,81.17
2022-12-23T05:53:16.887Z,80.69
2022-12-23T05:54:16.876Z,80.79
2022-12-23T05:55:16.888Z,81.07
2022-12-23T05:56:16.898Z,80.60
2022-12-23T05:57:16.910Z,80.69
2022-12-23T05:58:16.923Z,80.69
2022-12-23T05:59:16.938Z,80.79
2022-12-23T06:00:16.948Z,80.41
2022-12-23T06:01:16.965Z,80.51
2022-12-23T06:02:17.091Z,80.60
2022-12-23T06:03:17.158Z,80.60
2022-12-23T06:04:17.071Z,80.22
2022-12-23T06:05:17.016Z,80.51
2022-12-23T06:06:17.019Z,80.69
2022-12-23T06:07:17.030Z,80.79
2022-12-23T06:08:17.044Z,80.41
2022-12-23T06:09:17.063Z,80.60
2022-12-23T06:10:17.064Z,80.51
2022-12-23T06:11:17.074Z,80.69
2022-12-23T06:12:17.095Z,80.60
2022-12-23T06:13:17.101Z,80.69
2022-12-23T06:14:17.139Z,80.69
2022-12-23T06:15:17.129Z,80.69
2022-12-23T06:16:17.170Z,80.41
2022-12-23T06:17:17.149Z,80.22
2022-12-23T06:18:17.161Z,80.22
2022-12-23T06:19:17.172Z,80.03
2022-12-23T06:20:20.723Z,80.22
2022-12-23T06:21:17.198Z,80.22
2022-12-23T06:22:17.205Z,80.22
2022-12-23T06:23:17.218Z,80.32
2022-12-23T06:24:17.230Z,80.32
2022-12-23T06:25:17.244Z,80.22
2022-12-23T06:26:17.259Z,80.32
2022-12-23T06:27:17.264Z,80.51
2022-12-23T06:28:17.282Z,80.41
2022-12-23T06:29:17.297Z,80.22
2022-12-23T06:30:17.304Z,80.22
2022-12-23T06:31:17.370Z,80.32
2022-12-23T06:32:17.365Z,80.41
2022-12-23T06:33:17.376Z,80.03
2022-12-23T06:34:17.364Z,80.22
2022-12-23T06:35:17.364Z,79.74
2022-12-23T06:36:17.375Z,79.84
2022-12-23T06:37:17.390Z,79.94
2022-12-23T06:38:17.399Z,79.84
2022-12-23T06:39:17.414Z,79.74
2022-12-23T06:40:17.428Z,79.27
2022-12-23T06:41:17.440Z,79.46
2022-12-23T06:42:17.445Z,79.46
2022-12-23T06:43:17.465Z,79.55
2022-12-23T06:44:17.470Z,79.08
2022-12-23T06:45:17.485Z,79.08
2022-12-23T06:46:17.575Z,78.83
2022-12-23T06:47:17.513Z,78.93
2022-12-23T06:48:17.530Z,78.64
2022-12-23T06:49:17.544Z,78.83
2022-12-23T06:50:17.542Z,78.83
2022-12-23T06:51:17.557Z,78.80
2022-12-23T06:52:17.576Z,78.74
2022-12-23T06:53:17.580Z,77.98
2022-12-23T06:54:17.592Z,78.17
2022-12-23T06:55:17.604Z,78.27
2022-12-23T06:56:17.617Z,78.27
2022-12-23T06:57:17.637Z,78.17
2022-12-23T06:58:17.678Z,78.17
2022-12-23T06:59:17.652Z,78.27
2022-12-23T07:00:17.681Z,78.36
2022-12-23T07:01:17.714Z,78.27
2022-12-23T07:02:17.916Z,78.36
2022-12-23T07:03:17.779Z,77.89
2022-12-23T07:04:17.717Z,77.79
2022-12-23T07:05:17.724Z,77.89
2022-12-23T07:06:17.749Z,78.45
2022-12-23T07:07:17.753Z,77.79
2022-12-23T07:08:17.766Z,78.27
2022-12-23T07:09:17.787Z,78.45
2022-12-23T07:10:17.784Z,78.45
2022-12-23T07:11:17.802Z,78.27
2022-12-23T07:12:17.817Z,78.08
2022-12-23T07:13:17.823Z,77.89
2022-12-23T07:14:17.838Z,78.55
2022-12-23T07:15:17.872Z,78.36
2022-12-23T07:16:17.870Z,78.27
2022-12-23T07:17:17.872Z,78.27
2022-12-23T07:18:17.885Z,78.17
2022-12-23T07:19:17.905Z,78.08
2022-12-23T07:20:17.909Z,78.27
2022-12-23T07:21:26.513Z,78.27
2022-12-23T07:22:17.941Z,78.17
2022-12-23T07:23:17.951Z,78.64
2022-12-23T07:24:17.958Z,78.74
2022-12-23T07:25:17.971Z,78.83
2022-12-23T07:26:17.992Z,78.83
2022-12-23T07:27:17.994Z,78.64
2022-12-23T07:28:18.009Z,78.74
2022-12-23T07:29:18.017Z,78.64
2022-12-23T07:30:18.029Z,78.93
2022-12-23T07:31:18.068Z,78.64
2022-12-23T07:32:18.055Z,78.64
2022-12-23T07:33:18.067Z,78.64
2022-12-23T07:34:18.079Z,78.55
2022-12-23T07:35:18.105Z,78.83
2022-12-23T07:36:18.115Z,78.83
2022-12-23T07:37:18.116Z,79.03
2022-12-23T07:38:18.128Z,78.93
2022-12-23T07:39:18.137Z,78.93
2022-12-23T07:40:18.151Z,79.03
2022-12-23T07:41:18.166Z,78.83
2022-12-23T07:42:44.207Z,78.74
2022-12-23T07:43:18.195Z,78.64
2022-12-23T07:44:18.203Z,78.83
2022-12-23T07:45:18.217Z,78.93
2022-12-23T07:46:18.249Z,78.74
2022-12-23T07:47:18.239Z,79.03
2022-12-23T07:48:18.256Z,78.93
2022-12-23T07:49:18.259Z,79.03
2022-12-23T07:50:18.273Z,78.55
2022-12-23T07:51:18.287Z,78.74
2022-12-23T07:52:18.296Z,78.64
2022-12-23T07:53:18.312Z,78.83
2022-12-23T07:54:18.324Z,78.74
2022-12-23T07:55:18.333Z,78.83
2022-12-23T07:56:18.369Z,79.03
2022-12-23T07:57:18.363Z,78.83
2022-12-23T07:58:18.376Z,78.93
2022-12-23T07:59:18.384Z,78.93
2022-12-23T08:00:18.399Z,78.83
2022-12-23T08:01:18.453Z,78.74
2022-12-23T08:02:18.583Z,78.93
2022-12-23T08:03:18.595Z,79.03
2022-12-23T08:04:18.528Z,78.83
2022-12-23T08:05:18.542Z,78.93
2022-12-23T08:06:18.478Z,78.83
2022-12-23T08:07:18.508Z,78.74
2022-12-23T08:08:18.505Z,78.93
2022-12-23T08:09:18.524Z,78.93
2022-12-23T08:10:18.536Z,78.74
2022-12-23T08:11:18.532Z,78.64
2022-12-23T08:12:18.543Z,78.83
2022-12-23T08:13:18.560Z,78.83
2022-12-23T08:14:18.571Z,78.83
2022-12-23T08:15:18.577Z,78.93
2022-12-23T08:16:18.634Z,78.74
2022-12-23T08:17:18.710Z,78.83
2022-12-23T08:18:18.615Z,78.64
2022-12-23T08:19:18.628Z,78.83
2022-12-23T08:20:18.646Z,79.03
2022-12-23T08:21:18.654Z,78.93
2022-12-23T08:22:18.666Z,79.03
2022-12-23T08:23:24.427Z,78.74
2022-12-23T08:24:18.696Z,78.64
2022-12-23T08:25:18.703Z,78.17
2022-12-23T08:26:18.715Z,78.17
2022-12-23T08:27:18.728Z,78.27
2022-12-23T08:28:18.742Z,78.27
2022-12-23T08:29:18.753Z,78.08
2022-12-23T08:30:18.767Z,78.08
2022-12-23T08:31:18.852Z,78.08
2022-12-23T08:32:18.794Z,78.17
2022-12-23T08:33:18.806Z,78.17
2022-12-23T08:34:18.817Z,78.08
2022-12-23T08:35:18.828Z,78.27
2022-12-23T08:36:22.776Z,78.27
2022-12-23T08:37:18.854Z,78.27
2022-12-23T08:38:18.866Z,78.17
2022-12-23T08:39:18.881Z,78.27
2022-12-23T08:40:18.894Z,78.27
2022-12-23T08:41:18.920Z,78.36
2022-12-23T08:42:18.917Z,78.17
2022-12-23T08:43:18.929Z,78.55
2022-12-23T08:44:18.948Z,78.27
2022-12-23T08:45:18.953Z,78.27
2022-12-23T08:46:19.008Z,78.45
2022-12-23T08:47:18.980Z,78.97
2022-12-23T08:48:18.997Z,79.03
2022-12-23T08:49:19.010Z,78.93
2022-12-23T08:50:19.038Z,79.03
2022-12-23T08:51:19.046Z,78.88
2022-12-23T08:52:19.045Z,78.93
2022-12-23T08:53:19.078Z,78.74
2022-12-23T08:54:19.081Z,78.93
2022-12-23T08:55:19.085Z,78.64
2022-12-23T08:56:19.097Z,78.74
2022-12-23T08:57:19.109Z,78.64
2022-12-23T08:58:19.122Z,78.93
2022-12-23T08:59:19.913Z,79.12
2022-12-23T09:00:19.157Z,79.35
2022-12-23T09:01:19.194Z,79.31
2022-12-23T09:02:19.363Z,79.03
2022-12-23T09:03:19.368Z,79.12
2022-12-23T09:04:19.209Z,79.06
2022-12-23T09:05:19.218Z,79.92
2022-12-23T09:06:24.757Z,79.54
2022-12-23T09:07:19.242Z,79.54
2022-12-23T09:08:19.254Z,79.41
2022-12-23T09:09:19.276Z,79.50
2022-12-23T09:10:19.285Z,79.79
2022-12-23T09:11:19.300Z,79.92
2022-12-23T09:12:19.310Z,80.02
2022-12-23T09:13:27.850Z,80.49
2022-12-23T09:14:19.347Z,80.30
2022-12-23T09:15:19.349Z,80.21
2022-12-23T09:16:19.384Z,80.87
2022-12-23T09:17:19.375Z,80.77
2022-12-23T09:18:19.385Z,80.87
2022-12-23T09:19:19.396Z,80.68
2022-12-23T09:20:19.416Z,80.40
2022-12-23T09:21:19.423Z,80.96
2022-12-23T09:22:19.439Z,81.35
2022-12-23T09:23:19.460Z,80.87
2022-12-23T09:24:19.476Z,81.59
2022-12-23T09:25:19.482Z,81.35
2022-12-23T09:26:19.496Z,81.25
2022-12-23T09:27:19.503Z,81.35
2022-12-23T09:28:19.517Z,81.54
2022-12-23T09:29:19.562Z,81.54
2022-12-23T09:30:19.549Z,81.35
2022-12-23T09:31:19.763Z,81.35
2022-12-23T09:32:19.586Z,81.63
2022-12-23T09:33:19.588Z,81.54
2022-12-23T09:34:19.601Z,81.54
2022-12-23T09:35:19.612Z,81.54
2022-12-23T09:36:19.621Z,81.44
2022-12-23T09:37:19.635Z,81.44
2022-12-23T09:38:19.648Z,81.44
2022-12-23T09:39:19.671Z,81.44
2022-12-23T09:40:19.688Z,81.73
2022-12-23T09:41:19.694Z,82.10
2022-12-23T09:42:19.703Z,82.20
2022-12-23T09:43:19.720Z,82.10
2022-12-23T09:44:19.733Z,82.10
2022-12-23T09:45:19.744Z,81.92
2022-12-23T09:46:19.817Z,82.29
2022-12-23T09:47:19.792Z,82.29
2022-12-23T09:48:19.784Z,82.68
2022-12-23T09:49:19.800Z,82.77
2022-12-23T09:50:19.811Z,82.77
2022-12-23T09:51:19.826Z,82.87
2022-12-23T09:52:19.839Z,82.58
2022-12-23T09:53:19.850Z,82.77
2022-12-23T09:54:19.862Z,82.87
2022-12-23T09:55:19.888Z,82.96
2022-12-23T09:56:19.892Z,83.06
2022-12-23T09:57:19.906Z,83.53
2022-12-23T09:58:19.916Z,83.91
2022-12-23T09:59:19.957Z,84.01
2022-12-23T10:00:19.991Z,84.20
2022-12-23T10:01:20.088Z,84.10
2022-12-23T10:02:20.107Z,84.39
2022-12-23T10:03:20.084Z,84.39
2022-12-23T10:04:20.063Z,84.48
2022-12-23T10:05:20.013Z,84.39
2022-12-23T10:06:20.045Z,84.20
2022-12-23T10:07:20.036Z,84.58
2022-12-23T10:08:20.055Z,84.67
2022-12-23T10:09:20.061Z,84.95
2022-12-23T10:10:20.077Z,85.62
2022-12-23T10:11:20.088Z,85.72
2022-12-23T10:12:27.274Z,85.72
2022-12-23T10:13:20.117Z,86.19
2022-12-23T10:14:20.133Z,85.91
2022-12-23T10:15:20.145Z,86.05
2022-12-23T10:16:20.300Z,86.10
2022-12-23T10:17:20.179Z,86.15
2022-12-23T10:18:20.191Z,86.05
2022-12-23T10:19:20.197Z,86.00
2022-12-23T10:20:20.209Z,86.47
2022-12-23T10:21:20.226Z,86.34
2022-12-23T10:22:20.233Z,86.82
2022-12-23T10:23:20.254Z,86.47
2022-12-23T10:24:20.263Z,86.72
2022-12-23T10:25:20.280Z,86.57
2022-12-23T10:26:20.288Z,86.67
2022-12-23T10:27:20.312Z,85.72
2022-12-23T10:28:20.314Z,86.29
2022-12-23T10:29:20.326Z,86.10
2022-12-23T10:30:51.646Z,86.19
2022-12-23T10:32:20.421Z,85.53
2022-12-23T10:33:20.381Z,85.62
2022-12-23T10:34:20.403Z,85.72
2022-12-23T10:35:20.420Z,85.34
2022-12-23T10:36:20.528Z,85.62
2022-12-23T10:37:20.437Z,85.53
2022-12-23T10:38:20.451Z,84.48
2022-12-23T10:39:20.461Z,84.86
2022-12-23T10:40:20.475Z,84.48
2022-12-23T10:41:20.508Z,84.95
2022-12-23T10:42:20.503Z,85.24
2022-12-23T10:43:20.515Z,85.34
2022-12-23T10:44:20.530Z,85.43
2022-12-23T10:45:20.546Z,85.62
2022-12-23T10:46:20.642Z,85.62
2022-12-23T10:47:20.567Z,85.53
2022-12-23T10:48:20.616Z,85.72
2022-12-23T10:49:20.597Z,85.62
2022-12-23T10:50:20.622Z,85.34
2022-12-23T10:51:20.630Z,85.34
2022-12-23T10:52:20.639Z,85.72
2022-12-23T10:53:20.662Z,85.43
2022-12-23T10:54:20.662Z,85.24
2022-12-23T10:55:20.679Z,85.72
2022-12-23T10:56:20.693Z,85.72
2022-12-23T10:57:20.704Z,85.91
2022-12-23T10:58:20.729Z,86.10
2022-12-23T10:59:20.734Z,86.00
2022-12-23T11:00:20.745Z,86.10
2022-12-23T11:01:26.721Z,86.00
2022-12-23T11:02:20.938Z,86.10
2022-12-23T11:03:20.924Z,85.91
2022-12-23T11:04:20.807Z,86.67
2022-12-23T11:05:20.825Z,86.47
2022-12-23T11:06:20.830Z,86.76
2022-12-23T11:08:20.860Z,86.67
2022-12-23T11:09:20.871Z,86.67
2022-12-23T11:10:20.902Z,86.86
2022-12-23T11:11:20.896Z,87.14
2022-12-23T11:12:20.912Z,87.81
2022-12-23T11:13:20.945Z,87.43
2022-12-23T11:14:20.942Z,87.90
2022-12-23T11:15:20.952Z,88.09
2022-12-23T11:16:20.990Z,88.85
2022-12-23T11:17:20.987Z,88.76
2022-12-23T11:18:20.995Z,89.42
2022-12-23T11:19:21.013Z,89.42
2022-12-23T11:20:21.023Z,89.71
2022-12-23T11:21:21.038Z,89.71
2022-12-23T11:22:21.051Z,89.80
2022-12-23T11:23:21.066Z,89.71
2022-12-23T11:24:21.079Z,90.00
2022-12-23T11:25:21.096Z,90.56
2022-12-23T11:26:21.105Z,90.28
2022-12-23T11:27:21.120Z,90.09
2022-12-23T11:28:21.135Z,90.19
2022-12-23T11:29:21.151Z,89.71
2022-12-23T11:30:21.161Z,89.23
2022-12-23T11:31:21.242Z,89.42
2022-12-23T11:32:21.206Z,89.71
2022-12-23T11:33:21.208Z,89.90
2022-12-23T11:34:21.214Z,90.09
2022-12-23T11:35:21.292Z,89.80
2022-12-23T11:36:21.247Z,90.28
2022-12-23T11:37:21.257Z,90.28
2022-12-23T11:38:21.270Z,90.28
2022-12-23T11:39:21.285Z,90.28
2022-12-23T11:40:21.299Z,90.28
2022-12-23T11:41:21.312Z,90.09
2022-12-23T11:42:21.330Z,90.37
2022-12-23T11:43:21.347Z,90.47
2022-12-23T11:44:21.351Z,90.47
2022-12-23T11:45:21.368Z,90.47
2022-12-23T11:46:21.420Z,90.09
2022-12-23T11:47:21.400Z,90.28
2022-12-23T11:48:21.413Z,90.28
2022-12-23T11:49:21.421Z,90.37
2022-12-23T11:50:21.430Z,90.09
2022-12-23T11:51:21.446Z,90.28
2022-12-23T11:52:21.467Z,90.56
2022-12-23T11:53:21.474Z,90.00
2022-12-23T11:54:21.500Z,90.28
2022-12-23T11:55:21.499Z,90.47
2022-12-23T11:56:21.563Z,90.56
2022-12-23T11:57:21.528Z,90.19
2022-12-23T11:58:21.552Z,89.90
2022-12-23T11:59:21.555Z,90.28
2022-12-23T12:00:21.610Z,90.28
2022-12-23T12:01:21.586Z,90.37
2022-12-23T12:02:21.636Z,90.37
2022-12-23T12:03:21.680Z,90.09
2022-12-23T12:04:21.620Z,90.00
2022-12-23T12:05:21.636Z,89.71
2022-12-23T12:06:21.656Z,89.23
2022-12-23T12:07:21.663Z,89.52
2022-12-23T12:08:21.682Z,89.23
2022-12-23T12:09:21.684Z,89.23
2022-12-23T12:10:21.704Z,89.71
2022-12-23T12:11:21.715Z,89.71
2022-12-23T12:12:21.728Z,89.71
2022-12-23T12:13:21.744Z,89.80
2022-12-23T12:14:21.808Z,89.71
2022-12-23T12:15:21.765Z,90.09
2022-12-23T12:16:21.838Z,89.71
2022-12-23T12:17:21.799Z,89.33
2022-12-23T12:18:21.807Z,89.42
2022-12-23T12:19:21.820Z,89.33
2022-12-23T12:20:21.838Z,89.42
2022-12-23T12:21:21.847Z,89.04
2022-12-23T12:22:21.862Z,89.23
2022-12-23T12:23:21.873Z,88.38
2022-12-23T12:24:21.892Z,88.76
2022-12-23T12:25:21.901Z,88.76
2022-12-23T12:26:21.915Z,88.85
2022-12-23T12:27:21.931Z,88.85
2022-12-23T12:28:21.944Z,88.47
2022-12-23T12:29:21.954Z,88.85
2022-12-23T12:30:21.974Z,88.57
2022-12-23T12:31:21.981Z,88.38
2022-12-23T12:32:22.002Z,88.28
2022-12-23T12:33:22.009Z,88.28
2022-12-23T12:34:22.017Z,88.00
2022-12-23T12:35:22.034Z,88.00
2022-12-23T12:36:22.089Z,88.28
2022-12-23T12:37:22.061Z,87.81
2022-12-23T12:38:22.073Z,87.43
2022-12-23T12:39:22.083Z,87.71
2022-12-23T12:40:22.100Z,87.52
2022-12-23T12:41:22.115Z,87.14
2022-12-23T12:42:22.127Z,87.14
2022-12-23T12:43:22.146Z,86.67
2022-12-23T12:44:22.165Z,87.14
2022-12-23T12:45:22.191Z,87.05
2022-12-23T12:46:22.268Z,87.14
2022-12-23T12:47:52.101Z,87.34
2022-12-23T12:48:22.213Z,87.24
2022-12-23T12:49:22.238Z,87.24
2022-12-23T12:50:22.330Z,86.95
2022-12-23T12:51:22.275Z,87.05
2022-12-23T12:52:22.271Z,87.14
2022-12-23T12:53:22.284Z,87.52
2022-12-23T12:54:22.286Z,87.81